Time;durP1;ratioP1;P1;durP2;ratioP2;P2;SDS_P1;SDS_P2;PMS_P1;PMS_P2;Temp;Humidity;BMP_temperature;BMP_pressure;BME280_temperature;BME280_humidity;BME280_pressure;Samples;Min_cycle;Max_cycle;Signal;HPM_P1;HPM_P2
2021/12/18 00:00:47;;;;;;;73.57;53.58;;;17.20;59.20;;;;;;4950436;28;86314;-69
2021/12/18 00:03:13;;;;;;;74.80;54.03;;;17.20;59.30;;;;;;4947743;28;87680;-68
2021/12/18 00:05:38;;;;;;;75.05;54.38;;;17.20;59.30;;;;;;4948300;28;85627;-68
2021/12/18 00:08:04;;;;;;;74.43;53.65;;;17.20;59.40;;;;;;4953378;28;85394;-69
2021/12/18 00:10:30;;;;;;;74.30;53.47;;;17.10;59.20;;;;;;4950316;28;86521;-69
2021/12/18 00:12:56;;;;;;;73.43;53.53;;;17.10;59.30;;;;;;4962802;28;88123;-68
2021/12/18 00:15:23;;;;;;;75.38;54.50;;;17.10;59.40;;;;;;4946408;28;87090;-68
2021/12/18 00:17:49;;;;;;;74.18;53.58;;;17.10;59.40;;;;;;4948307;28;85988;-68
2021/12/18 00:20:16;;;;;;;73.57;53.47;;;17.10;59.40;;;;;;4951936;28;86371;-68
2021/12/18 00:22:43;;;;;;;74.90;54.05;;;17.10;59.50;;;;;;4949189;28;92297;-68
2021/12/18 00:25:10;;;;;;;73.50;53.63;;;17.00;59.50;;;;;;4950118;28;86212;-68
2021/12/18 00:27:35;;;;;;;74.45;53.33;;;17.00;59.40;;;;;;4951244;28;90560;-68
2021/12/18 00:30:03;;;;;;;74.60;53.83;;;17.00;59.50;;;;;;4947957;28;86390;-68
2021/12/18 00:32:29;;;;;;;74.38;54.28;;;16.90;59.50;;;;;;4950047;28;86092;-68
2021/12/18 00:34:54;;;;;;;73.10;53.53;;;17.00;59.70;;;;;;4949771;28;85890;-68
2021/12/18 00:37:20;;;;;;;73.95;54.15;;;16.90;59.60;;;;;;4950573;28;86163;-68
2021/12/18 00:39:57;;;;;;;74.13;53.97;;;16.90;59.60;;;;;;4949074;28;91306;-68
2021/12/18 00:42:38;;;;;;;72.93;53.25;;;16.90;59.70;;;;;;4946216;28;89520;-68
2021/12/18 00:45:05;;;;;;;74.03;53.88;;;16.90;59.70;;;;;;4940659;28;87737;-68
2021/12/18 00:47:31;;;;;;;73.25;53.65;;;16.90;59.80;;;;;;4944775;28;86616;-68
2021/12/18 00:49:57;;;;;;;74.63;54.45;;;16.90;59.70;;;;;;4950496;28;86026;-68
2021/12/18 00:52:23;;;;;;;74.82;53.45;;;16.80;59.80;;;;;;4951508;28;85352;-68
2021/12/18 00:54:49;;;;;;;73.53;53.83;;;16.80;59.80;;;;;;4950210;28;85593;-68
2021/12/18 00:57:14;;;;;;;76.15;55.35;;;16.80;60.00;;;;;;4950663;28;86063;-69
2021/12/18 00:59:40;;;;;;;76.03;54.47;;;16.70;59.80;;;;;;4943341;28;86964;-68
2021/12/18 01:02:06;;;;;;;72.70;53.28;;;16.80;59.80;;;;;;4942198;28;91482;-68
2021/12/18 01:04:32;;;;;;;74.97;54.40;;;16.70;59.80;;;;;;4939130;28;90479;-68
2021/12/18 01:06:58;;;;;;;72.95;54.05;;;16.70;60.00;;;;;;4945238;28;87371;-68
2021/12/18 01:09:37;;;;;;;74.97;55.20;;;16.80;59.90;;;;;;4950768;28;85547;-68
2021/12/18 01:12:06;;;;;;;75.70;55.30;;;16.70;59.80;;;;;;4953980;28;86106;-68
2021/12/18 01:22:45;;;;;;;74.05;54.63;;;16.60;59.80;;;;;;4946185;28;88653;-68
2021/12/18 01:25:12;;;;;;;74.90;54.92;;;16.60;59.90;;;;;;4950209;28;85733;-68
2021/12/18 01:27:37;;;;;;;77.45;55.78;;;16.60;59.90;;;;;;4953868;28;86424;-68
2021/12/18 01:30:05;;;;;;;74.88;54.75;;;16.60;60.00;;;;;;4943268;28;85818;-69
2021/12/18 01:32:31;;;;;;;74.05;54.47;;;16.60;60.10;;;;;;4948069;28;87052;-68
2021/12/18 01:34:56;;;;;;;75.72;55.58;;;16.60;60.10;;;;;;4951582;28;85778;-68
2021/12/18 01:37:23;;;;;;;75.72;55.53;;;16.60;60.30;;;;;;4950455;28;86494;-68
2021/12/18 01:39:52;;;;;;;75.50;55.08;;;16.60;60.10;;;;;;4954672;28;85342;-68
2021/12/18 01:53:07;;;;;;;74.93;54.78;;;16.50;60.20;;;;;;4952390;28;86710;-68
2021/12/18 01:55:35;;;;;;;75.63;55.22;;;16.40;60.20;;;;;;4953779;28;86483;-68
2021/12/18 01:58:01;;;;;;;75.13;55.35;;;16.40;60.30;;;;;;4949935;28;86043;-69
2021/12/18 02:00:31;;;;;;;76.03;55.88;;;16.40;60.60;;;;;;4947147;28;88925;-68
2021/12/18 02:02:57;;;;;;;77.30;55.85;;;16.40;60.30;;;;;;4951491;28;85579;-68
2021/12/18 02:05:23;;;;;;;77.25;55.47;;;16.40;60.30;;;;;;4949504;28;86352;-68
2021/12/18 02:07:49;;;;;;;74.50;54.42;;;16.40;60.40;;;;;;4953156;28;86070;-68
2021/12/18 02:10:19;;;;;;;74.10;54.83;;;16.40;60.40;;;;;;4953116;28;86378;-68
2021/12/18 02:12:57;;;;;;;75.15;55.30;;;16.30;60.50;;;;;;4949535;28;85525;-69
2021/12/18 02:20:54;;;;;;;73.93;54.30;;;16.30;60.40;;;;;;4952066;28;84895;-69
2021/12/18 02:23:20;;;;;;;74.55;55.03;;;16.30;60.50;;;;;;4947574;28;85697;-68
2021/12/18 02:25:47;;;;;;;77.22;56.83;;;16.30;60.40;;;;;;4950455;28;86214;-69
2021/12/18 02:28:24;;;;;;;75.47;55.83;;;16.30;60.60;;;;;;4952305;28;86824;-68
2021/12/18 02:30:51;;;;;;;76.00;55.65;;;16.30;60.40;;;;;;4947351;28;85793;-69
2021/12/18 02:33:17;;;;;;;75.88;55.58;;;16.20;60.30;;;;;;4952758;28;85791;-69
2021/12/18 02:35:49;;;;;;;74.22;54.45;;;16.20;60.60;;;;;;4951628;28;86314;-69
2021/12/18 02:38:24;;;;;;;75.93;55.78;;;16.20;60.40;;;;;;4947798;28;86689;-68
2021/12/18 02:41:11;;;;;;;74.82;54.70;;;16.20;60.70;;;;;;4941786;28;86134;-68
2021/12/18 02:43:39;;;;;;;74.32;54.97;;;16.20;60.60;;;;;;4944479;28;86483;-68
2021/12/18 02:46:07;;;;;;;74.65;55.20;;;16.20;60.70;;;;;;4939571;28;85810;-68
2021/12/18 02:48:38;;;;;;;74.53;55.67;;;16.20;60.60;;;;;;4941121;28;88279;-68
2021/12/18 02:51:05;;;;;;;;;;;16.20;60.70;;;;;;4945017;28;85110;-69
2021/12/18 02:53:31;;;;;;;75.20;55.53;;;16.20;60.60;;;;;;4954590;28;85001;-68
2021/12/18 02:56:00;;;;;;;74.22;54.92;;;16.10;60.70;;;;;;4945329;28;86148;-68
2021/12/18 02:58:26;;;;;;;75.70;55.75;;;16.10;60.70;;;;;;4939500;28;86313;-68
2021/12/18 03:00:53;;;;;;;75.68;55.88;;;16.10;60.70;;;;;;4948925;28;85729;-69
2021/12/18 03:03:20;;;;;;;75.45;55.63;;;16.10;60.60;;;;;;4947851;28;86614;-68
2021/12/18 03:05:58;;;;;;;75.32;55.45;;;16.10;60.50;;;;;;4950553;28;85628;-68
2021/12/18 03:08:38;;;;;;;75.00;55.38;;;16.10;60.70;;;;;;4947061;28;90731;-68
2021/12/18 03:20:16;;;;;;;75.68;55.72;;;16.10;60.80;;;;;;4946071;28;86750;-68
2021/12/18 03:27:26;;;;;;;75.13;55.50;;;16.00;60.70;;;;;;4943625;28;85299;-69
2021/12/18 03:29:52;;;;;;;75.22;55.65;;;16.00;60.90;;;;;;4941941;28;90827;-68
2021/12/18 03:32:18;;;;;;;74.85;55.80;;;16.00;60.90;;;;;;4940085;28;85478;-68
2021/12/18 03:34:44;;;;;;;76.65;56.10;;;16.00;60.90;;;;;;4939822;28;92400;-68
2021/12/18 03:37:10;;;;;;;75.57;55.20;;;16.00;60.70;;;;;;4946055;28;86334;-68
2021/12/18 03:39:36;;;;;;;75.95;55.15;;;16.00;60.70;;;;;;4947499;28;87132;-69
2021/12/18 03:42:04;;;;;;;77.03;56.80;;;16.00;60.80;;;;;;4941283;28;85199;-69
2021/12/18 03:44:30;;;;;;;78.03;56.67;;;16.00;60.90;;;;;;4947309;28;86257;-68
2021/12/18 03:46:56;;;;;;;78.20;57.47;;;16.00;60.80;;;;;;4939033;28;86546;-68
2021/12/18 03:49:22;;;;;;;76.03;55.63;;;16.00;60.70;;;;;;4944522;28;89388;-68
2021/12/18 03:51:48;;;;;;;79.07;56.95;;;16.00;60.70;;;;;;4951626;28;89086;-68
2021/12/18 03:54:13;;;;;;;77.72;57.17;;;16.00;61.00;;;;;;4945762;28;90833;-68
2021/12/18 03:56:39;;;;;;;79.25;57.03;;;16.00;61.00;;;;;;4942658;28;86074;-68
2021/12/18 03:59:04;;;;;;;76.57;56.25;;;15.90;60.60;;;;;;4942231;28;86013;-68
2021/12/18 04:01:30;;;;;;;76.60;56.53;;;16.00;60.90;;;;;;4947887;28;86314;-68
2021/12/18 04:03:56;;;;;;;77.43;56.78;;;16.00;60.90;;;;;;4943779;28;86451;-68
2021/12/18 04:06:21;;;;;;;75.53;55.85;;;16.00;60.80;;;;;;4941726;28;88248;-68
2021/12/18 04:08:47;;;;;;;75.82;55.42;;;15.90;60.60;;;;;;4948204;28;86517;-68
2021/12/18 04:11:12;;;;;;;77.95;56.53;;;15.90;60.80;;;;;;4943120;28;85347;-68
2021/12/18 04:13:43;;;;;;;76.80;56.30;;;15.90;60.60;;;;;;4941986;28;86268;-68
2021/12/18 04:16:09;;;;;;;76.50;56.08;;;15.90;60.70;;;;;;4939777;28;92296;-68
2021/12/18 04:18:35;;;;;;;78.72;56.72;;;15.90;60.60;;;;;;4945091;28;85833;-69
2021/12/18 04:21:01;;;;;;;76.68;56.13;;;16.00;60.60;;;;;;4945513;28;88307;-68
2021/12/18 04:23:26;;;;;;;75.13;55.88;;;15.90;60.60;;;;;;4947521;28;85442;-68
2021/12/18 04:25:54;;;;;;;78.00;57.00;;;15.90;60.80;;;;;;4945739;28;85645;-68
2021/12/18 04:28:20;;;;;;;79.22;56.95;;;15.90;60.70;;;;;;4950894;28;86716;-68
2021/12/18 04:30:45;;;;;;;77.43;56.55;;;15.90;60.80;;;;;;4948542;28;87410;-68
2021/12/18 04:33:11;;;;;;;79.05;57.00;;;15.90;60.60;;;;;;4949274;28;87566;-69
2021/12/18 04:35:37;;;;;;;79.32;58.67;;;15.90;60.50;;;;;;4951891;28;85071;-68
2021/12/18 04:38:02;;;;;;;78.32;56.63;;;15.90;60.80;;;;;;4951350;28;92376;-69
2021/12/18 04:40:28;;;;;;;79.80;57.75;;;15.90;60.50;;;;;;4950232;28;85362;-68
2021/12/18 04:42:54;;;;;;;77.57;57.33;;;15.90;60.70;;;;;;4946338;28;86092;-68
2021/12/18 04:45:20;;;;;;;77.18;56.15;;;15.90;60.80;;;;;;4943475;28;85402;-68
2021/12/18 04:47:46;;;;;;;79.28;57.30;;;15.90;60.80;;;;;;4940648;28;86489;-69
2021/12/18 04:50:11;;;;;;;79.53;57.88;;;15.90;60.60;;;;;;4948172;28;86557;-68
2021/12/18 04:52:37;;;;;;;79.80;58.50;;;15.90;60.70;;;;;;4953925;28;85863;-69
2021/12/18 04:55:04;;;;;;;78.13;56.92;;;15.90;60.60;;;;;;4951244;28;89738;-68
2021/12/18 04:57:30;;;;;;;77.20;56.28;;;15.90;60.50;;;;;;4951203;28;85217;-68
2021/12/18 04:59:56;;;;;;;82.45;59.17;;;15.90;60.40;;;;;;4946084;28;88225;-68
2021/12/18 05:02:32;;;;;;;77.10;56.72;;;15.90;60.60;;;;;;4944832;28;92101;-68
2021/12/18 05:04:58;;;;;;;79.10;58.17;;;15.90;60.60;;;;;;4920114;28;87090;-68
2021/12/18 05:07:23;;;;;;;82.10;59.25;;;15.90;60.80;;;;;;4915601;28;86124;-68
2021/12/18 05:09:49;;;;;;;80.65;58.42;;;15.90;60.60;;;;;;4913467;28;89590;-68
2021/12/18 05:12:15;;;;;;;79.72;58.70;;;15.80;61.40;;;;;;4914409;28;89255;-68
2021/12/18 05:14:40;;;;;;;78.22;58.03;;;15.90;60.50;;;;;;4919929;28;88110;-68
2021/12/18 05:17:06;;;;;;;80.90;58.22;;;15.90;60.50;;;;;;4909668;28;88693;-68
2021/12/18 05:19:32;;;;;;;78.72;57.42;;;15.80;60.50;;;;;;4913431;28;85987;-68
2021/12/18 05:21:57;;;;;;;79.00;58.17;;;15.80;60.50;;;;;;4931986;28;91662;-69
2021/12/18 05:24:23;;;;;;;82.13;59.30;;;15.80;60.40;;;;;;4915455;28;89733;-68
2021/12/18 05:26:48;;;;;;;77.07;56.45;;;15.80;60.70;;;;;;4915549;28;87114;-68
2021/12/18 05:29:14;;;;;;;77.43;57.15;;;15.90;60.80;;;;;;4911729;28;86871;-68
2021/12/18 05:31:40;;;;;;;79.85;57.10;;;16.00;60.70;;;;;;4904239;28;91332;-69
2021/12/18 05:34:05;;;;;;;79.80;57.08;;;16.10;60.60;;;;;;4904056;28;87112;-69
2021/12/18 05:37:12;;;;;;;77.80;56.85;;;16.30;60.30;;;;;;4919382;28;88305;-68
2021/12/18 05:39:27;;;;;;;75.35;55.45;;;16.40;60.00;;;;;;4922009;28;86642;-68
2021/12/18 05:41:54;;;;;;;77.20;56.13;;;16.70;59.70;;;;;;4914894;28;87374;-68
2021/12/18 05:44:26;;;;;;;78.00;56.55;;;16.80;59.30;;;;;;4905671;28;86606;-68
2021/12/18 05:46:52;;;;;;;75.18;54.63;;;17.00;58.80;;;;;;4917104;28;87511;-68
2021/12/18 05:49:19;;;;;;;76.47;55.10;;;17.20;58.60;;;;;;4915824;28;89701;-68
2021/12/18 05:51:45;;;;;;;76.45;55.08;;;17.40;58.30;;;;;;4922465;28;86280;-68
2021/12/18 05:54:12;;;;;;;75.65;54.58;;;17.60;57.90;;;;;;4921610;28;86956;-68
2021/12/18 05:56:38;;;;;;;76.47;55.47;;;17.80;57.40;;;;;;4915518;28;90256;-69
2021/12/18 05:59:05;;;;;;;77.25;56.00;;;17.90;57.30;;;;;;4903384;28;89515;-68
2021/12/18 06:01:31;;;;;;;75.75;54.97;;;18.10;57.00;;;;;;4910258;28;86548;-69
2021/12/18 06:03:57;;;;;;;75.47;54.80;;;18.30;56.70;;;;;;4924295;28;86850;-68
2021/12/18 06:06:23;;;;;;;78.60;56.08;;;18.50;56.40;;;;;;4916315;28;91951;-69
2021/12/18 06:08:49;;;;;;;76.07;54.63;;;18.70;56.10;;;;;;4916772;28;89716;-69
2021/12/18 06:11:17;;;;;;;78.35;56.63;;;18.70;55.60;;;;;;4908167;28;88320;-69
2021/12/18 06:13:48;;;;;;;74.13;53.80;;;18.90;55.40;;;;;;4920295;28;86214;-68
2021/12/18 06:16:15;;;;;;;76.68;54.63;;;19.00;55.20;;;;;;4915255;28;86957;-68
2021/12/18 06:18:44;;;;;;;76.13;55.08;;;19.10;55.00;;;;;;4924844;28;87302;-69
2021/12/18 06:21:13;;;;;;;76.28;54.88;;;19.20;54.70;;;;;;4907211;28;87241;-68
2021/12/18 06:23:47;;;;;;;78.05;55.67;;;19.20;54.50;;;;;;4914115;28;90453;-68
2021/12/18 06:26:14;;;;;;;76.28;55.25;;;19.30;54.50;;;;;;4916788;28;87787;-69
2021/12/18 06:28:40;;;;;;;75.97;55.20;;;19.30;54.40;;;;;;4925006;28;86658;-68
2021/12/18 06:31:06;;;;;;;77.10;55.67;;;19.40;54.30;;;;;;4921728;28;90164;-69
2021/12/18 06:33:32;;;;;;;77.15;55.35;;;19.40;54.30;;;;;;4904874;28;88024;-68
2021/12/18 06:35:58;;;;;;;77.10;55.75;;;19.40;54.30;;;;;;4913661;28;86554;-69
2021/12/18 06:38:24;;;;;;;79.20;56.85;;;19.40;54.20;;;;;;4909842;28;96126;-70
2021/12/18 06:40:50;;;;;;;80.00;57.53;;;19.40;54.30;;;;;;4901121;28;91304;-70
2021/12/18 06:43:16;;;;;;;76.05;54.83;;;19.40;54.10;;;;;;4902128;28;89363;-70
2021/12/18 06:45:42;;;;;;;79.25;56.15;;;19.40;54.10;;;;;;4921167;28;87081;-70
2021/12/18 06:48:08;;;;;;;76.22;55.03;;;19.40;54.10;;;;;;4907816;28;89849;-70
2021/12/18 06:50:35;;;;;;;77.63;55.50;;;19.40;54.20;;;;;;4930792;28;89055;-70
2021/12/18 06:53:01;;;;;;;76.97;55.63;;;19.40;54.20;;;;;;4914012;28;90183;-69
2021/12/18 06:55:27;;;;;;;75.50;54.90;;;19.40;54.10;;;;;;4914448;28;87500;-70
2021/12/18 06:57:53;;;;;;;78.95;57.05;;;19.30;54.10;;;;;;4917675;28;90129;-69
2021/12/18 07:00:20;;;;;;;79.10;56.78;;;19.30;54.30;;;;;;4918862;28;87325;-70
2021/12/18 07:02:46;;;;;;;75.70;54.83;;;19.30;55.00;;;;;;4924701;28;88154;-70
2021/12/18 07:05:12;;;;;;;78.30;56.53;;;19.20;54.60;;;;;;4909622;28;89211;-70
2021/12/18 07:07:38;;;;;;;78.10;56.08;;;19.20;54.50;;;;;;4919036;28;87775;-71
2021/12/18 07:10:06;;;;;;;78.47;56.78;;;19.20;54.50;;;;;;4926835;28;87583;-71
2021/12/18 07:12:32;;;;;;;77.55;55.83;;;19.20;54.60;;;;;;4909648;28;88198;-71
2021/12/18 07:14:58;;;;;;;78.97;56.90;;;19.20;54.50;;;;;;4904496;28;88780;-70
2021/12/18 07:17:24;;;;;;;77.78;56.03;;;19.10;54.60;;;;;;4910663;28;88093;-70
2021/12/18 07:19:49;;;;;;;75.93;55.55;;;19.00;54.60;;;;;;4920163;28;86736;-71
2021/12/18 07:22:15;;;;;;;82.60;59.38;;;19.00;54.80;;;;;;4921479;28;92672;-71
2021/12/18 07:24:41;;;;;;;79.72;57.00;;;18.90;55.00;;;;;;4910448;28;90923;-71
2021/12/18 07:27:06;;;;;;;77.63;56.20;;;18.90;55.10;;;;;;4908586;28;86801;-71
2021/12/18 07:29:33;;;;;;;75.13;54.20;;;18.90;55.30;;;;;;4910028;28;88124;-71
2021/12/18 07:31:59;;;;;;;74.80;54.50;;;18.90;55.40;;;;;;4917689;28;86550;-72
2021/12/18 07:34:24;;;;;;;75.60;54.85;;;18.80;55.40;;;;;;4913080;28;86855;-71
2021/12/18 07:36:50;;;;;;;75.32;54.38;;;18.80;55.50;;;;;;4904562;28;87212;-71
2021/12/18 07:39:16;;;;;;;74.57;54.10;;;18.70;55.60;;;;;;4924255;28;87168;-69
2021/12/18 07:41:41;;;;;;;75.63;55.13;;;18.70;55.60;;;;;;4902169;28;87952;-70
2021/12/18 07:44:07;;;;;;;75.25;54.28;;;18.80;56.20;;;;;;4913549;28;86375;-70
2021/12/18 07:46:37;;;;;;;76.80;55.63;;;18.70;55.80;;;;;;4909858;28;86419;-69
2021/12/18 07:49:05;;;;;;;78.13;56.20;;;18.70;55.80;;;;;;4927107;28;87769;-69
2021/12/18 07:51:31;;;;;;;78.57;56.95;;;18.60;55.80;;;;;;4936062;28;89604;-70
2021/12/18 07:53:57;;;;;;;77.75;56.15;;;18.50;55.80;;;;;;4925368;28;86633;-69
2021/12/18 07:56:22;;;;;;;79.28;57.25;;;18.50;56.00;;;;;;4927515;28;87156;-69
2021/12/18 07:58:48;;;;;;;77.82;56.30;;;18.50;56.00;;;;;;4920175;28;86902;-69
2021/12/18 08:01:13;;;;;;;80.15;56.67;;;18.40;56.10;;;;;;4934708;28;86674;-69
2021/12/18 08:03:40;;;;;;;80.22;57.03;;;18.40;56.00;;;;;;4932106;28;85507;-70
2021/12/18 08:06:06;;;;;;;79.70;57.83;;;18.40;56.10;;;;;;4922064;28;87816;-70
2021/12/18 08:08:32;;;;;;;77.20;56.83;;;18.40;56.30;;;;;;4928287;28;86207;-70
2021/12/18 08:10:58;;;;;;;76.97;56.33;;;18.30;56.20;;;;;;4929236;28;89705;-70
2021/12/18 08:13:24;;;;;;;80.55;58.10;;;18.30;56.20;;;;;;4929566;28;88358;-69
2021/12/18 08:15:49;;;;;;;80.55;58.42;;;18.20;56.30;;;;;;4926700;28;85545;-70
2021/12/18 08:18:15;;;;;;;80.15;58.20;;;18.20;56.30;;;;;;4928225;28;86581;-70
2021/12/18 08:20:41;;;;;;;78.20;57.47;;;18.10;56.50;;;;;;4925135;28;86410;-70
2021/12/18 08:23:06;;;;;;;77.28;56.13;;;18.10;56.40;;;;;;4937997;28;86719;-69
2021/12/18 08:25:34;;;;;;;79.63;58.00;;;18.10;56.40;;;;;;4933054;28;87477;-69
2021/12/18 08:28:00;;;;;;;77.90;56.60;;;18.10;56.60;;;;;;4929453;28;87167;-70
2021/12/18 08:30:27;;;;;;;78.10;57.20;;;18.00;56.70;;;;;;4923297;28;87379;-70
2021/12/18 08:32:53;;;;;;;80.53;58.15;;;18.00;56.70;;;;;;4930183;28;86666;-70
2021/12/18 08:35:18;;;;;;;81.40;58.88;;;18.00;56.70;;;;;;4944886;28;88716;-70
2021/12/18 08:37:44;;;;;;;80.38;57.85;;;17.90;56.80;;;;;;4930378;28;85865;-70
2021/12/18 08:40:12;;;;;;;80.88;57.75;;;17.90;56.80;;;;;;4919415;28;87071;-70
2021/12/18 08:42:38;;;;;;;80.78;57.97;;;17.90;57.00;;;;;;4918687;28;88249;-69
2021/12/18 08:45:04;;;;;;;78.07;56.60;;;17.90;57.00;;;;;;4930733;28;85688;-69
2021/12/18 08:47:30;;;;;;;80.40;57.97;;;17.80;57.00;;;;;;4915129;28;87179;-70
2021/12/18 08:49:55;;;;;;;82.47;59.13;;;17.80;56.90;;;;;;4935804;28;85940;-69
2021/12/18 08:52:21;;;;;;;80.15;57.60;;;17.70;57.00;;;;;;4933160;28;86733;-69
2021/12/18 08:54:47;;;;;;;82.05;58.72;;;17.70;57.00;;;;;;4917598;28;86573;-69
2021/12/18 08:57:13;;;;;;;77.93;56.85;;;17.70;57.30;;;;;;4941925;28;87514;-69
2021/12/18 08:59:39;;;;;;;80.80;57.63;;;17.70;57.20;;;;;;4918464;28;86781;-70
2021/12/18 09:02:10;;;;;;;80.88;57.38;;;17.60;57.20;;;;;;4906353;28;88932;-70
2021/12/18 09:04:36;;;;;;;78.45;57.33;;;17.60;57.40;;;;;;4919984;28;87955;-70
2021/12/18 09:07:03;;;;;;;79.80;57.78;;;17.60;57.30;;;;;;4920120;28;88954;-70
2021/12/18 09:09:28;;;;;;;81.47;58.75;;;17.60;57.40;;;;;;4925948;28;86253;-70
2021/12/18 09:11:54;;;;;;;80.63;57.78;;;17.60;57.40;;;;;;4922466;28;86303;-69
2021/12/18 09:14:20;;;;;;;79.60;57.85;;;17.50;57.50;;;;;;4914781;28;92809;-70
2021/12/18 09:16:45;;;;;;;81.80;58.08;;;17.50;57.50;;;;;;4929187;28;87589;-70
2021/12/18 09:19:12;;;;;;;81.18;58.65;;;17.50;57.60;;;;;;4925159;28;88631;-70
2021/12/18 09:21:38;;;;;;;79.13;57.20;;;17.50;57.30;;;;;;4930202;28;86109;-69
2021/12/18 09:24:04;;;;;;;80.95;58.40;;;17.50;57.60;;;;;;4925191;28;91337;-70
2021/12/18 09:26:30;;;;;;;81.63;59.05;;;17.40;57.50;;;;;;4915178;28;87566;-70
2021/12/18 09:28:56;;;;;;;80.57;57.83;;;17.40;57.60;;;;;;4928700;28;86018;-70
2021/12/18 09:31:21;;;;;;;80.22;57.80;;;17.30;57.60;;;;;;4922820;28;87272;-70
2021/12/18 09:33:47;;;;;;;77.40;56.58;;;17.40;57.70;;;;;;4897892;28;88639;-70
2021/12/18 09:36:13;;;;;;;78.47;57.00;;;17.40;57.80;;;;;;4903321;28;90047;-70
2021/12/18 09:38:38;;;;;;;80.40;58.33;;;17.30;57.60;;;;;;4904067;28;88125;-69
2021/12/18 09:41:06;;;;;;;82.70;58.70;;;17.40;57.60;;;;;;4930768;28;90854;-69
2021/12/18 09:43:32;;;;;;;79.05;57.25;;;17.30;57.70;;;;;;4923380;28;90598;-70
2021/12/18 09:46:03;;;;;;;80.80;58.08;;;17.30;57.70;;;;;;4935560;28;85875;-70
2021/12/18 09:48:29;;;;;;;81.97;58.00;;;17.30;57.90;;;;;;4923377;28;86692;-69
2021/12/18 09:50:57;;;;;;;81.25;58.58;;;17.30;57.90;;;;;;4925732;28;86876;-69
2021/12/18 09:53:23;;;;;;;78.72;56.78;;;17.20;57.90;;;;;;4923278;28;87169;-69
2021/12/18 09:55:49;;;;;;;80.20;57.65;;;17.20;58.00;;;;;;4926028;28;85617;-70
2021/12/18 09:58:14;;;;;;;82.03;58.25;;;17.20;58.00;;;;;;4926077;28;86473;-70
2021/12/18 10:00:40;;;;;;;77.90;56.25;;;17.20;58.10;;;;;;4925059;28;85931;-70
2021/12/18 10:03:07;;;;;;;78.93;57.00;;;17.20;58.00;;;;;;4929590;28;86200;-70
2021/12/18 10:05:34;;;;;;;80.28;57.80;;;17.20;58.00;;;;;;4929012;28;86951;-70
2021/12/18 10:08:13;;;;;;;78.90;56.22;;;17.20;58.00;;;;;;4890600;28;88566;-70
2021/12/18 10:10:58;;;;;;;75.38;55.70;;;17.20;58.00;;;;;;4923976;28;86495;-70
2021/12/18 10:13:24;;;;;;;77.30;56.05;;;17.20;58.10;;;;;;4910949;28;88185;-70
2021/12/18 10:16:07;;;;;;;77.53;56.17;;;17.20;58.10;;;;;;4934378;28;86305;-71
2021/12/18 10:18:33;;;;;;;78.78;56.85;;;17.30;58.00;;;;;;4910593;28;86407;-71
2021/12/18 10:21:09;;;;;;;77.13;55.45;;;17.50;58.10;;;;;;4909096;28;86339;-71
2021/12/18 10:23:34;;;;;;;77.43;55.30;;;17.60;57.80;;;;;;4911161;28;86023;-71
2021/12/18 10:26:00;;;;;;;78.47;55.22;;;17.70;57.60;;;;;;4923881;28;85451;-71
2021/12/18 10:28:42;;;;;;;76.82;54.28;;;17.90;57.40;;;;;;4916553;28;86945;-71
2021/12/18 10:31:08;;;;;;;75.45;54.55;;;18.10;57.20;;;;;;4912282;28;88502;-71
2021/12/18 10:33:35;;;;;;;76.60;55.10;;;18.20;56.70;;;;;;4931069;28;88472;-71
2021/12/18 10:36:02;;;;;;;76.63;55.42;;;18.30;56.50;;;;;;4905132;28;87350;-71
2021/12/18 10:38:51;;;;;;;77.43;55.15;;;18.40;56.30;;;;;;4916898;28;86285;-71
2021/12/18 10:41:30;;;;;;;78.30;55.60;;;18.60;56.10;;;;;;4904381;28;89408;-71
2021/12/18 10:44:08;;;;;;;77.10;54.85;;;18.70;55.90;;;;;;4919101;28;86983;-72
2021/12/18 10:46:39;;;;;;;77.35;55.28;;;18.80;55.80;;;;;;4919154;28;89324;-72
2021/12/18 10:49:09;;;;;;;78.50;55.55;;;18.90;55.40;;;;;;4917580;28;86989;-71
2021/12/18 10:51:37;;;;;;;77.22;55.33;;;18.90;55.20;;;;;;4926982;28;90775;-71
2021/12/18 10:54:17;;;;;;;77.80;55.38;;;19.00;55.10;;;;;;4906511;28;88521;-71
2021/12/18 10:56:52;;;;;;;76.90;55.20;;;19.10;55.00;;;;;;4926086;28;86869;-71
2021/12/18 10:59:21;;;;;;;77.03;55.40;;;19.10;54.80;;;;;;4903748;28;86154;-71
2021/12/18 11:01:52;;;;;;;77.85;55.35;;;19.20;54.70;;;;;;4924714;28;86109;-71
2021/12/18 11:04:29;;;;;;;77.00;54.47;;;19.20;54.70;;;;;;4913604;28;86357;-71
2021/12/18 11:06:56;;;;;;;77.38;55.67;;;19.20;54.50;;;;;;4926269;28;86185;-72
2021/12/18 11:09:32;;;;;;;75.90;54.42;;;19.20;54.50;;;;;;4920353;28;88204;-72
2021/12/18 11:14:37;;;;;;;77.50;54.58;;;19.20;54.60;;;;;;4918870;28;87951;-70
2021/12/18 11:17:04;;;;;;;75.50;54.25;;;19.30;54.50;;;;;;4919803;28;88609;-70
2021/12/18 11:19:32;;;;;;;76.93;54.72;;;19.30;54.60;;;;;;4913063;28;85794;-71
2021/12/18 11:22:03;;;;;;;78.57;55.03;;;19.30;54.40;;;;;;4905385;28;87738;-71
2021/12/18 11:24:38;;;;;;;78.22;55.63;;;19.30;54.50;;;;;;4914330;28;90730;-70
2021/12/18 11:27:12;;;;;;;78.88;55.75;;;19.30;54.40;;;;;;4920676;28;86195;-70
2021/12/18 11:29:44;;;;;;;76.68;54.83;;;19.30;54.50;;;;;;4911484;28;87808;-71
2021/12/18 11:32:17;;;;;;;77.65;55.42;;;19.40;54.50;;;;;;4924068;28;89291;-71
2021/12/18 11:34:45;;;;;;;77.85;54.85;;;19.30;54.40;;;;;;4906001;28;94691;-71
2021/12/18 11:37:14;;;;;;;77.57;54.95;;;19.30;54.70;;;;;;4920145;28;88049;-71
2021/12/18 11:39:40;;;;;;;77.18;54.95;;;19.30;54.70;;;;;;4916621;28;90596;-72
2021/12/18 11:42:07;;;;;;;77.55;55.03;;;19.30;54.70;;;;;;4918605;28;85352;-72
2021/12/18 11:44:42;;;;;;;76.68;54.70;;;19.20;54.50;;;;;;4912257;28;87633;-72
2021/12/18 11:47:36;;;;;;;76.82;55.03;;;19.20;54.70;;;;;;4921963;28;91562;-72
2021/12/18 11:50:06;;;;;;;75.25;54.30;;;19.20;54.70;;;;;;4925286;28;86667;-72
2021/12/18 11:53:10;;;;;;;76.53;54.85;;;19.20;54.70;;;;;;4928428;28;88829;-72
2021/12/18 11:55:50;;;;;;;76.65;55.00;;;19.00;54.90;;;;;;4913939;28;86915;-72
2021/12/18 11:58:21;;;;;;;77.97;55.67;;;19.00;55.20;;;;;;4916204;28;88683;-72
2021/12/18 12:00:51;;;;;;;78.90;55.33;;;19.00;55.10;;;;;;4918999;28;88477;-72
2021/12/18 12:03:38;;;;;;;76.47;55.00;;;19.00;55.20;;;;;;4925176;28;86297;-71
2021/12/18 12:06:42;;;;;;;77.60;55.47;;;18.90;55.30;;;;;;4901794;28;86851;-72
2021/12/18 12:09:26;;;;;;;80.07;56.88;;;18.90;55.00;;;;;;4926231;28;88093;-72
2021/12/18 12:12:06;;;;;;;78.35;56.15;;;18.80;55.20;;;;;;4925700;28;85763;-70
2021/12/18 12:14:43;;;;;;;80.03;56.47;;;18.80;55.30;;;;;;4917627;28;87480;-72
2021/12/18 12:17:21;;;;;;;79.10;55.50;;;18.70;55.20;;;;;;4928366;28;85889;-72
2021/12/18 12:19:51;;;;;;;78.50;56.47;;;18.70;54.60;;;;;;4934157;28;86572;-72
2021/12/18 12:22:41;;;;;;;80.15;56.50;;;18.60;55.40;;;;;;4922126;28;85509;-72
2021/12/18 12:25:08;;;;;;;81.80;56.30;;;18.60;55.60;;;;;;4940335;28;85695;-72
2021/12/18 12:27:38;;;;;;;78.68;55.65;;;18.60;55.70;;;;;;4934577;28;87407;-71
2021/12/18 12:30:43;;;;;;;79.70;55.83;;;18.50;55.70;;;;;;4930066;28;87780;-71
2021/12/18 12:33:30;;;;;;;79.63;56.45;;;18.50;55.80;;;;;;4916553;28;85861;-71
2021/12/18 12:36:10;;;;;;;77.65;55.50;;;18.50;55.80;;;;;;4922777;28;86559;-71
2021/12/18 12:38:55;;;;;;;76.82;54.97;;;18.50;55.70;;;;;;4934284;28;86163;-70
2021/12/18 12:41:29;;;;;;;77.47;56.00;;;18.40;55.70;;;;;;4931389;28;92015;-71
2021/12/18 12:43:59;;;;;;;77.95;55.65;;;18.40;55.90;;;;;;4927501;28;86537;-71
2021/12/18 12:46:26;;;;;;;78.68;55.92;;;18.40;55.90;;;;;;4929841;28;88025;-70
2021/12/18 12:49:08;;;;;;;80.70;55.60;;;18.30;55.80;;;;;;4926807;28;86063;-71
2021/12/18 12:51:59;;;;;;;79.65;56.05;;;18.30;56.00;;;;;;4933472;28;86215;-70
2021/12/18 12:54:46;;;;;;;78.73;55.97;;;18.20;56.20;;;;;;4946710;28;87742;-70
2021/12/18 12:57:30;;;;;;;77.78;56.05;;;18.20;56.20;;;;;;4914082;28;95675;-70
2021/12/18 12:59:58;;;;;;;79.88;57.15;;;18.20;56.40;;;;;;4901901;28;90961;-70
2021/12/18 13:02:33;;;;;;;79.63;56.38;;;18.10;56.40;;;;;;4916162;28;91367;-70
2021/12/18 13:05:04;;;;;;;81.03;56.45;;;18.10;56.40;;;;;;4904154;28;92147;-70
2021/12/18 13:07:30;;;;;;;;;;;18.20;56.40;;;;;;4903849;28;91632;-70
2021/12/18 13:09:56;;;;;;;77.85;56.08;;;18.30;56.40;;;;;;4923307;28;92633;-70
2021/12/18 13:12:22;;;;;;;82.05;56.97;;;18.40;56.20;;;;;;4914380;28;92554;-70
2021/12/18 13:14:47;;;;;;;78.63;56.58;;;18.40;56.30;;;;;;4913625;28;90634;-71
2021/12/18 13:17:28;;;;;;;80.97;57.25;;;18.50;56.60;;;;;;4894557;28;92609;-70